首页
METAR-TAF:

METAR-TAF

机场 :

Wawa, 安大略省, 加拿大

纬度: 47-58N, 经度: 084-47W, 海拔: 287米

当前天气观测

该预报发布于9小时和21分钟前的00:00 UTC
风速5节,风向西南,在南转西南西之间变化
温度 7°C
湿度 76%
气压 1021 hPa
能見度: 24.1公里
散云层高于9300英尺
散云层高于26000英尺

METAR: CYXZ 010000Z 23005KT 210V270 15SM SCT093 SCT260 07/03 A3015 RMK AC3CI1 LAST OBS/NEXT 011100 UTC SLP222

时间: 05:21 (09:21 UTC)

预报

该预报发布于13小时和47分钟前的19:34 UTC
预报有效从31日的 20点(UTC)到 31日的 24点(UTC)
风速8节,风向西转西南
能見度: 10公里
少量云层高于4000英尺
散云层高于7000英尺
短暂存在
从 31日的 20点(UTC)到 31日的 24点(UTC)
散云层高于4000英尺
多云层高于7000英尺

TAF: CYXZ 311934Z 3120/3124 24008KT P6SM FEW040 SCT070 TEMPO 3120/3124 SCT040 BKN070 RMK NXT FCST WILL BE ISSUED AT 011245Z

超过4000个机场的气象观测和天气预报(METAR&TAF报告)。

可查询的气象台以黄色和红色小点在地图上表示。

将鼠标移到小点上方,可查看气象台名称。

然后点击查看天气观测和预报。

如需切换地图:点击带黑十字的绿色按钮放大地图;点击带横线的绿色按钮缩小地图;或者点击绿色箭头查看邻近地区的地图。


METAR-TAF: